sensor_id;sensor_type;location;lat;lon;timestamp;P1;durP1;ratioP1;P2;durP2;ratioP2
56481;SDS011;42384;45.186;19.958;2023-06-26T00:00:32;14.18;;;9.20;;
56481;SDS011;42384;45.186;19.958;2023-06-26T00:02:58;13.95;;;9.32;;
56481;SDS011;42384;45.186;19.958;2023-06-26T00:05:24;15.40;;;9.10;;
56481;SDS011;42384;45.186;19.958;2023-06-26T00:07:52;10.05;;;8.80;;
56481;SDS011;42384;45.186;19.958;2023-06-26T00:10:19;14.02;;;9.23;;
56481;SDS011;42384;45.186;19.958;2023-06-26T00:12:45;12.40;;;9.60;;
56481;SDS011;42384;45.186;19.958;2023-06-26T00:15:11;13.93;;;9.30;;
56481;SDS011;42384;45.186;19.958;2023-06-26T00:17:37;13.20;;;9.82;;
56481;SDS011;42384;45.186;19.958;2023-06-26T00:20:04;11.27;;;9.52;;
56481;SDS011;42384;45.186;19.958;2023-06-26T00:24:56;13.05;;;9.68;;
56481;SDS011;42384;45.186;19.958;2023-06-26T00:27:23;12.90;;;9.68;;
56481;SDS011;42384;45.186;19.958;2023-06-26T00:29:49;14.50;;;9.63;;
56481;SDS011;42384;45.186;19.958;2023-06-26T00:32:17;15.82;;;12.43;;
56481;SDS011;42384;45.186;19.958;2023-06-26T00:34:44;23.83;;;18.33;;
56481;SDS011;42384;45.186;19.958;2023-06-26T00:37:12;20.92;;;15.05;;
56481;SDS011;42384;45.186;19.958;2023-06-26T00:39:38;14.38;;;9.75;;
56481;SDS011;42384;45.186;19.958;2023-06-26T00:42:05;22.45;;;13.63;;
56481;SDS011;42384;45.186;19.958;2023-06-26T00:44:31;28.50;;;19.63;;
56481;SDS011;42384;45.186;19.958;2023-06-26T00:46:58;24.63;;;18.25;;
56481;SDS011;42384;45.186;19.958;2023-06-26T00:49:24;25.27;;;19.92;;
56481;SDS011;42384;45.186;19.958;2023-06-26T00:51:50;17.30;;;13.77;;
56481;SDS011;42384;45.186;19.958;2023-06-26T00:54:16;13.18;;;10.40;;
56481;SDS011;42384;45.186;19.958;2023-06-26T00:56:46;12.35;;;10.15;;
56481;SDS011;42384;45.186;19.958;2023-06-26T00:59:12;13.35;;;10.70;;
56481;SDS011;42384;45.186;19.958;2023-06-26T01:01:39;13.20;;;11.15;;
56481;SDS011;42384;45.186;19.958;2023-06-26T01:04:05;23.33;;;11.13;;
56481;SDS011;42384;45.186;19.958;2023-06-26T01:06:31;13.35;;;11.95;;
56481;SDS011;42384;45.186;19.958;2023-06-26T01:09:02;15.48;;;11.50;;
56481;SDS011;42384;45.186;19.958;2023-06-26T01:11:29;16.48;;;11.52;;
56481;SDS011;42384;45.186;19.958;2023-06-26T01:13:56;15.38;;;11.30;;
56481;SDS011;42384;45.186;19.958;2023-06-26T01:16:23;12.52;;;10.85;;
56481;SDS011;42384;45.186;19.958;2023-06-26T01:18:50;13.88;;;11.07;;
56481;SDS011;42384;45.186;19.958;2023-06-26T01:21:17;13.85;;;11.15;;
56481;SDS011;42384;45.186;19.958;2023-06-26T01:23:56;13.38;;;9.95;;
56481;SDS011;42384;45.186;19.958;2023-06-26T01:26:26;15.05;;;9.73;;
56481;SDS011;42384;45.186;19.958;2023-06-26T01:28:53;13.50;;;10.05;;
56481;SDS011;42384;45.186;19.958;2023-06-26T01:33:46;13.90;;;9.57;;
56481;SDS011;42384;45.186;19.958;2023-06-26T01:36:12;11.88;;;9.70;;
56481;SDS011;42384;45.186;19.958;2023-06-26T01:38:39;13.57;;;9.30;;
56481;SDS011;42384;45.186;19.958;2023-06-26T01:41:05;14.10;;;9.35;;
56481;SDS011;42384;45.186;19.958;2023-06-26T01:46:03;9.93;;;8.38;;
56481;SDS011;42384;45.186;19.958;2023-06-26T01:48:33;10.43;;;7.93;;
56481;SDS011;42384;45.186;19.958;2023-06-26T01:51:00;13.45;;;8.40;;
56481;SDS011;42384;45.186;19.958;2023-06-26T01:53:29;11.32;;;8.05;;
56481;SDS011;42384;45.186;19.958;2023-06-26T01:56:08;11.77;;;8.82;;
56481;SDS011;42384;45.186;19.958;2023-06-26T01:58:37;9.40;;;7.57;;
56481;SDS011;42384;45.186;19.958;2023-06-26T02:01:05;11.43;;;8.02;;
56481;SDS011;42384;45.186;19.958;2023-06-26T02:03:31;10.80;;;7.70;;
56481;SDS011;42384;45.186;19.958;2023-06-26T02:05:58;12.98;;;7.55;;
56481;SDS011;42384;45.186;19.958;2023-06-26T02:08:25;9.25;;;7.13;;
56481;SDS011;42384;45.186;19.958;2023-06-26T02:10:51;8.80;;;7.05;;
56481;SDS011;42384;45.186;19.958;2023-06-26T02:13:17;10.38;;;8.40;;
56481;SDS011;42384;45.186;19.958;2023-06-26T02:15:44;10.73;;;7.15;;
56481;SDS011;42384;45.186;19.958;2023-06-26T02:18:12;10.70;;;7.78;;
56481;SDS011;42384;45.186;19.958;2023-06-26T02:20:39;14.02;;;7.53;;
56481;SDS011;42384;45.186;19.958;2023-06-26T02:23:06;11.38;;;7.30;;
56481;SDS011;42384;45.186;19.958;2023-06-26T02:25:33;12.00;;;8.70;;
56481;SDS011;42384;45.186;19.958;2023-06-26T02:28:01;12.32;;;8.52;;
56481;SDS011;42384;45.186;19.958;2023-06-26T02:30:28;14.07;;;9.27;;
56481;SDS011;42384;45.186;19.958;2023-06-26T02:32:56;10.40;;;8.52;;
56481;SDS011;42384;45.186;19.958;2023-06-26T02:35:23;12.07;;;9.75;;
56481;SDS011;42384;45.186;19.958;2023-06-26T02:37:50;15.13;;;8.88;;
56481;SDS011;42384;45.186;19.958;2023-06-26T02:40:18;11.02;;;9.52;;
56481;SDS011;42384;45.186;19.958;2023-06-26T02:42:45;14.73;;;9.60;;
56481;SDS011;42384;45.186;19.958;2023-06-26T02:45:12;12.05;;;9.95;;
56481;SDS011;42384;45.186;19.958;2023-06-26T02:47:39;11.85;;;10.18;;
56481;SDS011;42384;45.186;19.958;2023-06-26T02:50:07;15.50;;;9.85;;
56481;SDS011;42384;45.186;19.958;2023-06-26T02:55:27;12.63;;;9.85;;
56481;SDS011;42384;45.186;19.958;2023-06-26T02:57:55;13.77;;;9.82;;
56481;SDS011;42384;45.186;19.958;2023-06-26T03:00:22;12.48;;;8.90;;
56481;SDS011;42384;45.186;19.958;2023-06-26T03:02:49;12.20;;;8.90;;
56481;SDS011;42384;45.186;19.958;2023-06-26T03:05:15;12.35;;;8.75;;
56481;SDS011;42384;45.186;19.958;2023-06-26T03:07:42;11.30;;;8.82;;
56481;SDS011;42384;45.186;19.958;2023-06-26T03:10:08;10.70;;;7.70;;
56481;SDS011;42384;45.186;19.958;2023-06-26T03:12:34;10.63;;;7.38;;
56481;SDS011;42384;45.186;19.958;2023-06-26T03:15:02;10.48;;;7.07;;
56481;SDS011;42384;45.186;19.958;2023-06-26T03:17:28;9.35;;;7.05;;
56481;SDS011;42384;45.186;19.958;2023-06-26T03:19:55;8.55;;;6.25;;
56481;SDS011;42384;45.186;19.958;2023-06-26T03:22:22;8.60;;;6.25;;
56481;SDS011;42384;45.186;19.958;2023-06-26T03:24:50;7.57;;;6.07;;
56481;SDS011;42384;45.186;19.958;2023-06-26T03:27:17;6.85;;;5.90;;
56481;SDS011;42384;45.186;19.958;2023-06-26T03:29:44;6.95;;;5.90;;
56481;SDS011;42384;45.186;19.958;2023-06-26T03:32:11;7.03;;;5.22;;
56481;SDS011;42384;45.186;19.958;2023-06-26T03:34:38;7.78;;;5.85;;
56481;SDS011;42384;45.186;19.958;2023-06-26T03:37:06;8.10;;;5.97;;
56481;SDS011;42384;45.186;19.958;2023-06-26T03:39:33;7.88;;;5.60;;
56481;SDS011;42384;45.186;19.958;2023-06-26T03:42:01;8.60;;;5.68;;
56481;SDS011;42384;45.186;19.958;2023-06-26T03:44:28;11.27;;;5.60;;
56481;SDS011;42384;45.186;19.958;2023-06-26T03:46:55;7.25;;;5.15;;
56481;SDS011;42384;45.186;19.958;2023-06-26T03:49:21;10.48;;;5.95;;
56481;SDS011;42384;45.186;19.958;2023-06-26T03:51:48;8.00;;;5.30;;
56481;SDS011;42384;45.186;19.958;2023-06-26T03:54:14;8.85;;;5.93;;
56481;SDS011;42384;45.186;19.958;2023-06-26T03:56:40;10.65;;;5.10;;
56481;SDS011;42384;45.186;19.958;2023-06-26T03:59:06;6.57;;;4.97;;
56481;SDS011;42384;45.186;19.958;2023-06-26T04:01:33;6.28;;;5.20;;
56481;SDS011;42384;45.186;19.958;2023-06-26T04:04:00;7.00;;;5.65;;
56481;SDS011;42384;45.186;19.958;2023-06-26T04:08:52;6.50;;;5.22;;
56481;SDS011;42384;45.186;19.958;2023-06-26T04:11:18;10.60;;;5.72;;
56481;SDS011;42384;45.186;19.958;2023-06-26T04:13:44;7.85;;;6.35;;
56481;SDS011;42384;45.186;19.958;2023-06-26T04:16:11;10.02;;;6.28;;
56481;SDS011;42384;45.186;19.958;2023-06-26T04:18:37;7.72;;;5.93;;
56481;SDS011;42384;45.186;19.958;2023-06-26T04:21:10;9.85;;;6.28;;
56481;SDS011;42384;45.186;19.958;2023-06-26T04:23:37;10.35;;;6.05;;
56481;SDS011;42384;45.186;19.958;2023-06-26T04:28:33;7.50;;;6.55;;
56481;SDS011;42384;45.186;19.958;2023-06-26T04:31:00;7.53;;;6.18;;
56481;SDS011;42384;45.186;19.958;2023-06-26T04:35:53;8.15;;;6.45;;
56481;SDS011;42384;45.186;19.958;2023-06-26T04:38:19;15.73;;;7.28;;
56481;SDS011;42384;45.186;19.958;2023-06-26T04:40:47;9.55;;;7.28;;
56481;SDS011;42384;45.186;19.958;2023-06-26T04:43:13;10.93;;;7.20;;
56481;SDS011;42384;45.186;19.958;2023-06-26T04:45:40;14.45;;;6.90;;
56481;SDS011;42384;45.186;19.958;2023-06-26T04:48:06;11.95;;;7.82;;
56481;SDS011;42384;45.186;19.958;2023-06-26T04:50:33;13.60;;;8.73;;
56481;SDS011;42384;45.186;19.958;2023-06-26T04:53:00;11.32;;;8.50;;
56481;SDS011;42384;45.186;19.958;2023-06-26T04:55:27;9.23;;;7.05;;
56481;SDS011;42384;45.186;19.958;2023-06-26T04:57:53;9.73;;;8.05;;
56481;SDS011;42384;45.186;19.958;2023-06-26T05:00:20;11.52;;;7.53;;
56481;SDS011;42384;45.186;19.958;2023-06-26T05:02:47;9.85;;;7.25;;
56481;SDS011;42384;45.186;19.958;2023-06-26T05:05:14;11.93;;;7.72;;
56481;SDS011;42384;45.186;19.958;2023-06-26T05:07:41;8.68;;;7.00;;
56481;SDS011;42384;45.186;19.958;2023-06-26T05:10:07;11.23;;;7.05;;
56481;SDS011;42384;45.186;19.958;2023-06-26T05:12:34;12.80;;;6.85;;
56481;SDS011;42384;45.186;19.958;2023-06-26T05:15:00;14.80;;;6.80;;
56481;SDS011;42384;45.186;19.958;2023-06-26T05:17:26;8.10;;;5.72;;
56481;SDS011;42384;45.186;19.958;2023-06-26T05:19:53;10.18;;;6.20;;
